sensor_id;sensor_type;location;lat;lon;timestamp;pressure;altitude;pressure_sealevel;temperature;humidity
28456;BME280;15682;56.742;38.866;2022-08-04T00:01:15;100010.0;;;16.2;84.6
28456;BME280;15682;56.742;38.866;2022-08-04T00:03:16;100010.0;;;16.2;84.6
28456;BME280;15682;56.742;38.866;2022-08-04T00:05:21;100010.0;;;16.2;84.5
28456;BME280;15682;56.742;38.866;2022-08-04T00:07:15;100010.0;;;16.1;84.6
28456;BME280;15682;56.742;38.866;2022-08-04T00:09:16;100010.0;;;16.1;85.2
28456;BME280;15682;56.742;38.866;2022-08-04T00:11:14;100010.0;;;16.1;85.2
28456;BME280;15682;56.742;38.866;2022-08-04T00:13:12;100010.0;;;15.9;85.2
28456;BME280;15682;56.742;38.866;2022-08-04T00:15:14;100010.0;;;15.9;85.4
28456;BME280;15682;56.742;38.866;2022-08-04T00:17:13;100010.0;;;16.0;85.4
28456;BME280;15682;56.742;38.866;2022-08-04T00:19:19;100010.0;;;16.0;85.4
28456;BME280;15682;56.742;38.866;2022-08-04T00:21:15;100010.0;;;16.0;85.4
28456;BME280;15682;56.742;38.866;2022-08-04T00:23:14;100010.0;;;16.0;85.4
28456;BME280;15682;56.742;38.866;2022-08-04T00:25:14;100010.0;;;16.0;85.7
28456;BME280;15682;56.742;38.866;2022-08-04T00:27:14;100020.0;;;15.9;85.7
28456;BME280;15682;56.742;38.866;2022-08-04T00:29:14;100020.0;;;15.9;85.7
28456;BME280;15682;56.742;38.866;2022-08-04T00:31:15;100020.0;;;15.9;85.7
28456;BME280;15682;56.742;38.866;2022-08-04T00:33:18;100020.0;;;15.9;85.7
28456;BME280;15682;56.742;38.866;2022-08-04T00:35:15;100020.0;;;15.9;85.8
28456;BME280;15682;56.742;38.866;2022-08-04T00:37:16;100020.0;;;15.9;85.8
28456;BME280;15682;56.742;38.866;2022-08-04T00:39:16;100020.0;;;15.8;85.8
28456;BME280;15682;56.742;38.866;2022-08-04T00:41:25;100020.0;;;15.8;85.8
28456;BME280;15682;56.742;38.866;2022-08-04T00:43:22;100020.0;;;15.8;85.8
28456;BME280;15682;56.742;38.866;2022-08-04T00:45:33;100020.0;;;15.8;86.0
28456;BME280;15682;56.742;38.866;2022-08-04T00:47:29;100020.0;;;15.7;86.0
28456;BME280;15682;56.742;38.866;2022-08-04T00:49:35;100020.0;;;15.7;86.0
28456;BME280;15682;56.742;38.866;2022-08-04T00:51:33;100020.0;;;15.7;86.0
28456;BME280;15682;56.742;38.866;2022-08-04T00:53:28;100020.0;;;15.7;86.0
28456;BME280;15682;56.742;38.866;2022-08-04T00:55:30;100020.0;;;15.7;86.0
28456;BME280;15682;56.742;38.866;2022-08-04T00:57:29;100020.0;;;15.7;86.0
28456;BME280;15682;56.742;38.866;2022-08-04T00:59:29;100030.0;;;15.6;86.0
28456;BME280;15682;56.742;38.866;2022-08-04T01:01:32;100030.0;;;15.6;86.0
28456;BME280;15682;56.742;38.866;2022-08-04T01:03:25;100030.0;;;15.6;86.0
28456;BME280;15682;56.742;38.866;2022-08-04T01:05:23;100030.0;;;15.6;85.4
28456;BME280;15682;56.742;38.866;2022-08-04T01:07:30;100030.0;;;15.6;85.4
28456;BME280;15682;56.742;38.866;2022-08-04T01:09:28;100030.0;;;15.5;85.4
28456;BME280;15682;56.742;38.866;2022-08-04T01:11:33;100030.0;;;15.5;85.4
28456;BME280;15682;56.742;38.866;2022-08-04T01:13:32;100030.0;;;15.5;85.4
28456;BME280;15682;56.742;38.866;2022-08-04T01:15:25;100030.0;;;15.5;85.6
28456;BME280;15682;56.742;38.866;2022-08-04T01:17:25;100030.0;;;15.5;85.6
28456;BME280;15682;56.742;38.866;2022-08-04T01:19:50;100030.0;;;15.5;86.3
28456;BME280;15682;56.742;38.866;2022-08-04T01:23:48;100030.0;;;15.5;86.8
28456;BME280;15682;56.742;38.866;2022-08-04T01:25:48;100030.0;;;15.4;86.9
28456;BME280;15682;56.742;38.866;2022-08-04T01:27:26;100030.0;;;15.4;86.9
28456;BME280;15682;56.742;38.866;2022-08-04T01:29:26;100030.0;;;15.4;86.9
28456;BME280;15682;56.742;38.866;2022-08-04T01:31:28;100030.0;;;15.4;86.9
28456;BME280;15682;56.742;38.866;2022-08-04T01:33:26;100030.0;;;15.4;87.4
28456;BME280;15682;56.742;38.866;2022-08-04T01:35:28;100040.0;;;15.4;87.8
28456;BME280;15682;56.742;38.866;2022-08-04T01:37:32;100040.0;;;15.4;87.8
28456;BME280;15682;56.742;38.866;2022-08-04T01:39:33;100040.0;;;15.4;87.8
28456;BME280;15682;56.742;38.866;2022-08-04T01:41:24;100040.0;;;15.4;87.8
28456;BME280;15682;56.742;38.866;2022-08-04T01:43:26;100040.0;;;15.6;86.8
28456;BME280;15682;56.742;38.866;2022-08-04T01:45:26;100040.0;;;15.6;86.4
28456;BME280;15682;56.742;38.866;2022-08-04T01:47:28;100040.0;;;15.6;86.2
28456;BME280;15682;56.742;38.866;2022-08-04T01:49:28;100040.0;;;15.6;86.2
28456;BME280;15682;56.742;38.866;2022-08-04T01:51:26;100040.0;;;15.6;86.2
28456;BME280;15682;56.742;38.866;2022-08-04T01:53:30;100050.0;;;15.6;86.2
28456;BME280;15682;56.742;38.866;2022-08-04T01:55:28;100050.0;;;15.6;85.8
28456;BME280;15682;56.742;38.866;2022-08-04T01:57:27;100050.0;;;15.6;85.8
28456;BME280;15682;56.742;38.866;2022-08-04T01:59:28;100050.0;;;15.6;85.8
28456;BME280;15682;56.742;38.866;2022-08-04T02:01:27;100050.0;;;15.6;85.6
28456;BME280;15682;56.742;38.866;2022-08-04T02:03:28;100050.0;;;15.6;85.6
28456;BME280;15682;56.742;38.866;2022-08-04T02:05:28;100050.0;;;15.6;85.6
28456;BME280;15682;56.742;38.866;2022-08-04T02:07:39;100050.0;;;15.7;85.6
28456;BME280;15682;56.742;38.866;2022-08-04T02:09:37;100050.0;;;15.7;85.6
28456;BME280;15682;56.742;38.866;2022-08-04T02:11:30;100050.0;;;15.7;85.1
28456;BME280;15682;56.742;38.866;2022-08-04T02:13:34;100050.0;;;15.9;85.1
28456;BME280;15682;56.742;38.866;2022-08-04T02:15:34;100060.0;;;16.0;84.6
28456;BME280;15682;56.742;38.866;2022-08-04T02:17:38;100060.0;;;16.1;84.6
28456;BME280;15682;56.742;38.866;2022-08-04T02:19:34;100060.0;;;16.1;84.6
28456;BME280;15682;56.742;38.866;2022-08-04T02:21:31;100060.0;;;16.1;84.6
28456;BME280;15682;56.742;38.866;2022-08-04T02:23:35;100060.0;;;16.2;84.0
28456;BME280;15682;56.742;38.866;2022-08-04T02:25:36;100060.0;;;16.3;82.9
28456;BME280;15682;56.742;38.866;2022-08-04T02:27:41;100060.0;;;16.3;82.9
28456;BME280;15682;56.742;38.866;2022-08-04T02:29:38;100060.0;;;16.3;82.9
28456;BME280;15682;56.742;38.866;2022-08-04T02:31:36;100060.0;;;16.3;82.9
28456;BME280;15682;56.742;38.866;2022-08-04T02:33:36;100070.0;;;16.4;82.9
28456;BME280;15682;56.742;38.866;2022-08-04T02:35:35;100070.0;;;16.5;82.8
28456;BME280;15682;56.742;38.866;2022-08-04T02:37:34;100070.0;;;16.5;82.8
28456;BME280;15682;56.742;38.866;2022-08-04T02:39:34;100070.0;;;16.5;82.8
28456;BME280;15682;56.742;38.866;2022-08-04T02:41:34;100070.0;;;16.6;82.8
28456;BME280;15682;56.742;38.866;2022-08-04T02:43:35;100070.0;;;16.6;82.8
28456;BME280;15682;56.742;38.866;2022-08-04T02:45:35;100070.0;;;16.8;82.4
28456;BME280;15682;56.742;38.866;2022-08-04T02:47:34;100070.0;;;16.7;82.4
28456;BME280;15682;56.742;38.866;2022-08-04T02:49:35;100070.0;;;16.7;82.4
28456;BME280;15682;56.742;38.866;2022-08-04T02:51:36;100070.0;;;16.7;81.5
28456;BME280;15682;56.742;38.866;2022-08-04T02:53:36;100070.0;;;16.7;81.5
28456;BME280;15682;56.742;38.866;2022-08-04T02:55:36;100070.0;;;16.6;82.0
28456;BME280;15682;56.742;38.866;2022-08-04T02:57:37;100070.0;;;16.8;82.1
28456;BME280;15682;56.742;38.866;2022-08-04T02:59:47;100070.0;;;16.8;82.1
28456;BME280;15682;56.742;38.866;2022-08-04T03:01:37;100070.0;;;16.8;82.1
28456;BME280;15682;56.742;38.866;2022-08-04T03:03:39;100070.0;;;16.8;81.4
28456;BME280;15682;56.742;38.866;2022-08-04T03:05:49;100070.0;;;16.9;80.9
28456;BME280;15682;56.742;38.866;2022-08-04T03:09:58;100070.0;;;17.0;79.4
28456;BME280;15682;56.742;38.866;2022-08-04T03:11:56;100070.0;;;16.9;78.4
28456;BME280;15682;56.742;38.866;2022-08-04T03:13:56;100080.0;;;16.9;78.4
28456;BME280;15682;56.742;38.866;2022-08-04T03:15:55;100080.0;;;16.9;78.4
28456;BME280;15682;56.742;38.866;2022-08-04T03:17:56;100080.0;;;17.1;77.9
28456;BME280;15682;56.742;38.866;2022-08-04T03:19:57;100080.0;;;17.1;77.7
28456;BME280;15682;56.742;38.866;2022-08-04T03:21:56;100080.0;;;17.3;77.7
28456;BME280;15682;56.742;38.866;2022-08-04T03:23:58;100080.0;;;17.4;77.9
28456;BME280;15682;56.742;38.866;2022-08-04T03:25:53;100080.0;;;17.5;77.7
28456;BME280;15682;56.742;38.866;2022-08-04T03:27:59;100080.0;;;17.5;77.7
28456;BME280;15682;56.742;38.866;2022-08-04T03:30:03;100080.0;;;17.5;77.6
28456;BME280;15682;56.742;38.866;2022-08-04T03:32:05;100080.0;;;17.4;77.6
28456;BME280;15682;56.742;38.866;2022-08-04T03:33:54;100090.0;;;17.4;77.2
28456;BME280;15682;56.742;38.866;2022-08-04T03:36:11;100090.0;;;17.3;77.6
28456;BME280;15682;56.742;38.866;2022-08-04T03:38:06;100090.0;;;17.1;78.6
28456;BME280;15682;56.742;38.866;2022-08-04T03:40:17;100090.0;;;17.1;78.1
28456;BME280;15682;56.742;38.866;2022-08-04T03:42:03;100090.0;;;17.2;78.1
28456;BME280;15682;56.742;38.866;2022-08-04T03:46:04;100090.0;;;17.3;78.1
28456;BME280;15682;56.742;38.866;2022-08-04T03:47:59;100090.0;;;17.5;77.3
28456;BME280;15682;56.742;38.866;2022-08-04T03:50:10;100090.0;;;17.7;77.5
28456;BME280;15682;56.742;38.866;2022-08-04T03:51:54;100090.0;;;17.8;76.3
28456;BME280;15682;56.742;38.866;2022-08-04T03:54:00;100090.0;;;17.8;76.3
28456;BME280;15682;56.742;38.866;2022-08-04T03:58:00;100090.0;;;18.1;75.5
28456;BME280;15682;56.742;38.866;2022-08-04T03:59:57;100090.0;;;18.4;74.8
28456;BME280;15682;56.742;38.866;2022-08-04T04:02:06;100090.0;;;18.6;74.8
28456;BME280;15682;56.742;38.866;2022-08-04T04:04:11;100090.0;;;18.7;74.3
28456;BME280;15682;56.742;38.866;2022-08-04T04:06:01;100090.0;;;18.8;74.3
28456;BME280;15682;56.742;38.866;2022-08-04T04:08:10;100090.0;;;18.8;74.3
28456;BME280;15682;56.742;38.866;2022-08-04T04:10:06;100090.0;;;18.8;74.1
28456;BME280;15682;56.742;38.866;2022-08-04T04:12:05;100090.0;;;19.0;73.6
28456;BME280;15682;56.742;38.866;2022-08-04T04:14:10;100090.0;;;19.1;73.0
28456;BME280;15682;56.742;38.866;2022-08-04T04:16:05;100090.0;;;19.1;73.0
28456;BME280;15682;56.742;38.866;2022-08-04T04:18:12;100090.0;;;19.3;73.0
28456;BME280;15682;56.742;38.866;2022-08-04T04:20:02;100100.0;;;19.5;72.3
28456;BME280;15682;56.742;38.866;2022-08-04T04:22:05;100100.0;;;19.7;72.3
28456;BME280;15682;56.742;38.866;2022-08-04T04:24:02;100100.0;;;19.7;71.7
28456;BME280;15682;56.742;38.866;2022-08-04T04:26:05;100100.0;;;19.8;71.7
28456;BME280;15682;56.742;38.866;2022-08-04T04:28:10;100100.0;;;20.0;71.1
28456;BME280;15682;56.742;38.866;2022-08-04T04:30:02;100100.0;;;20.1;70.7
28456;BME280;15682;56.742;38.866;2022-08-04T04:32:03;100110.0;;;20.3;70.7
28456;BME280;15682;56.742;38.866;2022-08-04T04:34:07;100100.0;;;20.3;70.3
28456;BME280;15682;56.742;38.866;2022-08-04T04:36:08;100100.0;;;20.4;70.3
28456;BME280;15682;56.742;38.866;2022-08-04T04:38:13;100100.0;;;20.6;70.3
28456;BME280;15682;56.742;38.866;2022-08-04T04:40:10;100100.0;;;20.7;69.4
28456;BME280;15682;56.742;38.866;2022-08-04T04:42:10;100100.0;;;20.9;68.7
28456;BME280;15682;56.742;38.866;2022-08-04T04:44:17;100110.0;;;21.0;68.1
28456;BME280;15682;56.742;38.866;2022-08-04T04:46:05;100110.0;;;21.0;68.1
28456;BME280;15682;56.742;38.866;2022-08-04T04:48:07;100110.0;;;21.2;68.1
28456;BME280;15682;56.742;38.866;2022-08-04T04:50:07;100110.0;;;21.2;68.0
28456;BME280;15682;56.742;38.866;2022-08-04T04:52:08;100110.0;;;21.3;66.4
28456;BME280;15682;56.742;38.866;2022-08-04T04:54:07;100110.0;;;21.3;67.0
28456;BME280;15682;56.742;38.866;2022-08-04T04:56:10;100110.0;;;21.5;67.0
28456;BME280;15682;56.742;38.866;2022-08-04T04:58:10;100110.0;;;21.6;67.0
28456;BME280;15682;56.742;38.866;2022-08-04T05:00:08;100110.0;;;21.6;67.0
28456;BME280;15682;56.742;38.866;2022-08-04T05:02:27;100110.0;;;21.7;66.3
28456;BME280;15682;56.742;38.866;2022-08-04T05:04:20;100110.0;;;21.8;66.3
28456;BME280;15682;56.742;38.866;2022-08-04T05:06:17;100110.0;;;21.8;65.8
28456;BME280;15682;56.742;38.866;2022-08-04T05:08:30;100110.0;;;21.8;65.2
28456;BME280;15682;56.742;38.866;2022-08-04T05:10:21;100110.0;;;22.0;64.0
28456;BME280;15682;56.742;38.866;2022-08-04T05:12:23;100170.0;;;22.0;62.8
28456;BME280;15682;56.742;38.866;2022-08-04T05:14:15;100170.0;;;22.0;62.1
28456;BME280;15682;56.742;38.866;2022-08-04T05:16:16;100170.0;;;22.1;59.6
28456;BME280;15682;56.742;38.866;2022-08-04T05:18:21;100170.0;;;22.1;59.6
28456;BME280;15682;56.742;38.866;2022-08-04T05:20:15;100170.0;;;22.2;61.6
28456;BME280;15682;56.742;38.866;2022-08-04T05:22:20;100170.0;;;22.3;61.6
28456;BME280;15682;56.742;38.866;2022-08-04T05:24:17;100180.0;;;22.3;61.6
28456;BME280;15682;56.742;38.866;2022-08-04T05:26:17;100180.0;;;22.3;62.6
28456;BME280;15682;56.742;38.866;2022-08-04T05:28:19;100180.0;;;22.5;62.6
28456;BME280;15682;56.742;38.866;2022-08-04T05:30:17;100180.0;;;22.6;62.2
28456;BME280;15682;56.742;38.866;2022-08-04T05:32:20;100180.0;;;22.7;61.0
28456;BME280;15682;56.742;38.866;2022-08-04T05:34:21;100180.0;;;22.8;61.5
28456;BME280;15682;56.742;38.866;2022-08-04T05:36:21;100180.0;;;22.9;60.9
28456;BME280;15682;56.742;38.866;2022-08-04T05:38:22;100180.0;;;22.9;59.7
28456;BME280;15682;56.742;38.866;2022-08-04T05:40:21;100180.0;;;23.0;60.2
28456;BME280;15682;56.742;38.866;2022-08-04T05:42:21;100180.0;;;23.1;59.5
28456;BME280;15682;56.742;38.866;2022-08-04T05:44:23;100180.0;;;23.1;57.7
28456;BME280;15682;56.742;38.866;2022-08-04T05:46:22;100180.0;;;23.2;59.3
28456;BME280;15682;56.742;38.866;2022-08-04T05:48:24;100180.0;;;23.4;59.3
28456;BME280;15682;56.742;38.866;2022-08-04T05:50:24;100180.0;;;23.4;59.9
28456;BME280;15682;56.742;38.866;2022-08-04T05:52:25;100180.0;;;23.5;59.4
28456;BME280;15682;56.742;38.866;2022-08-04T05:54:27;100180.0;;;23.6;59.4
28456;BME280;15682;56.742;38.866;2022-08-04T05:56:27;100180.0;;;23.8;58.6
28456;BME280;15682;56.742;38.866;2022-08-04T05:58:28;100180.0;;;23.9;57.9
28456;BME280;15682;56.742;38.866;2022-08-04T06:00:28;100180.0;;;23.9;58.1
28456;BME280;15682;56.742;38.866;2022-08-04T06:02:29;100180.0;;;24.0;56.3
28456;BME280;15682;56.742;38.866;2022-08-04T06:04:31;100180.0;;;24.0;56.3
28456;BME280;15682;56.742;38.866;2022-08-04T06:06:30;100180.0;;;24.0;55.4
28456;BME280;15682;56.742;38.866;2022-08-04T06:08:31;100180.0;;;24.2;55.9
28456;BME280;15682;56.742;38.866;2022-08-04T06:10:33;100180.0;;;24.3;55.3
28456;BME280;15682;56.742;38.866;2022-08-04T06:12:37;100180.0;;;24.4;53.5
28456;BME280;15682;56.742;38.866;2022-08-04T06:14:37;100180.0;;;24.4;54.1
28456;BME280;15682;56.742;38.866;2022-08-04T06:16:37;100180.0;;;24.6;54.1
28456;BME280;15682;56.742;38.866;2022-08-04T06:18:35;100180.0;;;24.6;52.7
28456;BME280;15682;56.742;38.866;2022-08-04T06:20:38;100180.0;;;24.6;53.4
28456;BME280;15682;56.742;38.866;2022-08-04T06:22:40;100180.0;;;24.6;53.4
28456;BME280;15682;56.742;38.866;2022-08-04T06:24:38;100180.0;;;24.7;53.4
28456;BME280;15682;56.742;38.866;2022-08-04T06:26:38;100180.0;;;24.8;52.3
28456;BME280;15682;56.742;38.866;2022-08-04T06:28:40;100180.0;;;24.8;50.3
28456;BME280;15682;56.742;38.866;2022-08-04T06:30:40;100170.0;;;24.8;50.3
28456;BME280;15682;56.742;38.866;2022-08-04T06:32:41;100170.0;;;24.9;50.3
28456;BME280;15682;56.742;38.866;2022-08-04T06:34:41;100170.0;;;24.9;50.3
28456;BME280;15682;56.742;38.866;2022-08-04T06:36:42;100170.0;;;25.1;48.8
28456;BME280;15682;56.742;38.866;2022-08-04T06:38:43;100170.0;;;25.1;49.4
28456;BME280;15682;56.742;38.866;2022-08-04T06:40:43;100170.0;;;25.1;47.9
28456;BME280;15682;56.742;38.866;2022-08-04T06:42:44;100170.0;;;25.2;47.9
28456;BME280;15682;56.742;38.866;2022-08-04T06:44:49;100170.0;;;25.2;47.9
28456;BME280;15682;56.742;38.866;2022-08-04T06:46:46;100170.0;;;25.3;50.0
28456;BME280;15682;56.742;38.866;2022-08-04T06:48:47;100170.0;;;25.5;49.6
28456;BME280;15682;56.742;38.866;2022-08-04T06:50:48;100170.0;;;25.5;47.5
28456;BME280;15682;56.742;38.866;2022-08-04T06:52:48;100170.0;;;25.5;46.9
28456;BME280;15682;56.742;38.866;2022-08-04T06:54:50;100170.0;;;25.5;46.9
28456;BME280;15682;56.742;38.866;2022-08-04T06:56:50;100170.0;;;25.8;47.5
28456;BME280;15682;56.742;38.866;2022-08-04T06:58:51;100170.0;;;25.8;47.7
28456;BME280;15682;56.742;38.866;2022-08-04T07:00:52;100170.0;;;25.9;47.7
28456;BME280;15682;56.742;38.866;2022-08-04T07:02:52;100180.0;;;25.9;46.2
28456;BME280;15682;56.742;38.866;2022-08-04T07:04:53;100180.0;;;26.0;46.2
28456;BME280;15682;56.742;38.866;2022-08-04T07:06:53;100180.0;;;26.0;46.4
28456;BME280;15682;56.742;38.866;2022-08-04T07:08:54;100180.0;;;25.9;44.8
28456;BME280;15682;56.742;38.866;2022-08-04T07:10:56;100180.0;;;26.0;45.9
28456;BME280;15682;56.742;38.866;2022-08-04T07:12:56;100180.0;;;26.0;45.9
28456;BME280;15682;56.742;38.866;2022-08-04T07:14:57;100180.0;;;26.0;44.3
28456;BME280;15682;56.742;38.866;2022-08-04T07:16:58;100180.0;;;26.0;43.0
28456;BME280;15682;56.742;38.866;2022-08-04T07:18:58;100180.0;;;26.0;44.1
28456;BME280;15682;56.742;38.866;2022-08-04T07:20:59;100180.0;;;26.0;42.6
28456;BME280;15682;56.742;38.866;2022-08-04T07:23:00;100180.0;;;26.1;42.6
28456;BME280;15682;56.742;38.866;2022-08-04T07:25:00;100180.0;;;26.2;43.7
28456;BME280;15682;56.742;38.866;2022-08-04T07:27:03;100180.0;;;26.3;42.9
28456;BME280;15682;56.742;38.866;2022-08-04T07:29:02;100180.0;;;26.5;41.4
28456;BME280;15682;56.742;38.866;2022-08-04T07:31:04;100180.0;;;26.5;42.0
28456;BME280;15682;56.742;38.866;2022-08-04T07:33:04;100180.0;;;26.5;42.6
28456;BME280;15682;56.742;38.866;2022-08-04T07:35:05;100180.0;;;26.5;42.6
28456;BME280;15682;56.742;38.866;2022-08-04T07:37:05;100180.0;;;26.5;41.8
28456;BME280;15682;56.742;38.866;2022-08-04T07:39:05;100180.0;;;26.5;43.6
28456;BME280;15682;56.742;38.866;2022-08-04T07:41:06;100180.0;;;26.5;43.6
28456;BME280;15682;56.742;38.866;2022-08-04T07:43:07;100180.0;;;26.6;43.0
28456;BME280;15682;56.742;38.866;2022-08-04T07:45:09;100180.0;;;26.6;43.0
28456;BME280;15682;56.742;38.866;2022-08-04T07:47:08;100180.0;;;26.7;42.5
28456;BME280;15682;56.742;38.866;2022-08-04T07:49:09;100180.0;;;26.9;42.5
28456;BME280;15682;56.742;38.866;2022-08-04T07:51:10;100170.0;;;26.9;43.8
28456;BME280;15682;56.742;38.866;2022-08-04T07:53:12;100170.0;;;26.9;42.4
28456;BME280;15682;56.742;38.866;2022-08-04T07:55:12;100170.0;;;26.8;43.7
28456;BME280;15682;56.742;38.866;2022-08-04T07:57:12;100170.0;;;26.9;44.3
28456;BME280;15682;56.742;38.866;2022-08-04T07:59:13;100170.0;;;27.1;43.1
28456;BME280;15682;56.742;38.866;2022-08-04T08:01:13;100160.0;;;27.2;43.9
28456;BME280;15682;56.742;38.866;2022-08-04T08:03:14;100160.0;;;27.4;42.3
28456;BME280;15682;56.742;38.866;2022-08-04T08:05:17;100160.0;;;27.4;41.4
28456;BME280;15682;56.742;38.866;2022-08-04T08:07:18;100150.0;;;27.6;40.7
28456;BME280;15682;56.742;38.866;2022-08-04T08:09:18;100150.0;;;27.9;40.0
28456;BME280;15682;56.742;38.866;2022-08-04T08:11:17;100150.0;;;28.0;39.9
28456;BME280;15682;56.742;38.866;2022-08-04T08:13:17;100150.0;;;28.1;42.2
28456;BME280;15682;56.742;38.866;2022-08-04T08:15:19;100150.0;;;28.1;40.4
28456;BME280;15682;56.742;38.866;2022-08-04T08:17:18;100150.0;;;28.3;42.2
28456;BME280;15682;56.742;38.866;2022-08-04T08:19:19;100150.0;;;28.5;41.1
28456;BME280;15682;56.742;38.866;2022-08-04T08:21:20;100150.0;;;28.8;41.1
28456;BME280;15682;56.742;38.866;2022-08-04T08:23:21;100160.0;;;28.6;41.1
28456;BME280;15682;56.742;38.866;2022-08-04T08:25:21;100160.0;;;28.4;41.1
28456;BME280;15682;56.742;38.866;2022-08-04T08:27:22;100160.0;;;28.5;40.2
28456;BME280;15682;56.742;38.866;2022-08-04T08:29:23;100160.0;;;28.5;39.1
28456;BME280;15682;56.742;38.866;2022-08-04T08:31:23;100160.0;;;28.5;38.2
28456;BME280;15682;56.742;38.866;2022-08-04T08:33:24;100160.0;;;28.6;37.7
28456;BME280;15682;56.742;38.866;2022-08-04T08:35:25;100160.0;;;28.8;37.2
28456;BME280;15682;56.742;38.866;2022-08-04T08:37:31;100160.0;;;29.0;36.1
28456;BME280;15682;56.742;38.866;2022-08-04T08:39:33;100160.0;;;29.0;36.1
28456;BME280;15682;56.742;38.866;2022-08-04T08:41:44;100160.0;;;29.2;36.8
28456;BME280;15682;56.742;38.866;2022-08-04T08:43:39;100160.0;;;29.4;36.4
28456;BME280;15682;56.742;38.866;2022-08-04T08:45:42;100160.0;;;29.9;35.4
28456;BME280;15682;56.742;38.866;2022-08-04T08:47:38;100160.0;;;30.2;36.3
28456;BME280;15682;56.742;38.866;2022-08-04T08:49:45;100160.0;;;30.2;34.8
28456;BME280;15682;56.742;38.866;2022-08-04T08:51:39;100160.0;;;30.3;35.7
28456;BME280;15682;56.742;38.866;2022-08-04T08:53:44;100160.0;;;30.0;36.7
28456;BME280;15682;56.742;38.866;2022-08-04T08:55:41;100160.0;;;29.9;36.7
28456;BME280;15682;56.742;38.866;2022-08-04T08:57:39;100160.0;;;30.2;37.0
28456;BME280;15682;56.742;38.866;2022-08-04T08:59:42;100160.0;;;30.1;37.6
28456;BME280;15682;56.742;38.866;2022-08-04T09:01:48;100160.0;;;29.6;39.0
28456;BME280;15682;56.742;38.866;2022-08-04T09:03:50;100160.0;;;29.5;39.0
28456;BME280;15682;56.742;38.866;2022-08-04T09:05:50;100160.0;;;29.8;38.9
28456;BME280;15682;56.742;38.866;2022-08-04T09:07:53;100160.0;;;30.2;38.9
28456;BME280;15682;56.742;38.866;2022-08-04T09:09:51;100160.0;;;30.1;39.1
28456;BME280;15682;56.742;38.866;2022-08-04T09:11:40;100160.0;;;30.1;38.9
28456;BME280;15682;56.742;38.866;2022-08-04T09:13:42;100160.0;;;30.1;39.4
28456;BME280;15682;56.742;38.866;2022-08-04T09:15:44;100160.0;;;30.2;40.1
28456;BME280;15682;56.742;38.866;2022-08-04T09:17:44;100160.0;;;30.2;39.3
28456;BME280;15682;56.742;38.866;2022-08-04T09:19:44;100160.0;;;30.3;39.1
28456;BME280;15682;56.742;38.866;2022-08-04T09:21:46;100160.0;;;30.5;39.1
28456;BME280;15682;56.742;38.866;2022-08-04T09:23:47;100160.0;;;30.0;39.1
28456;BME280;15682;56.742;38.866;2022-08-04T09:25:47;100160.0;;;29.5;40.9
28456;BME280;15682;56.742;38.866;2022-08-04T09:27:47;100160.0;;;28.8;41.5
28456;BME280;15682;56.742;38.866;2022-08-04T09:29:48;100160.0;;;28.6;42.9
28456;BME280;15682;56.742;38.866;2022-08-04T09:31:52;100160.0;;;28.8;41.5
28456;BME280;15682;56.742;38.866;2022-08-04T09:33:49;100160.0;;;29.0;40.4
28456;BME280;15682;56.742;38.866;2022-08-04T09:35:50;100160.0;;;29.0;39.8
28456;BME280;15682;56.742;38.866;2022-08-04T09:37:56;100160.0;;;29.0;40.3
28456;BME280;15682;56.742;38.866;2022-08-04T09:39:53;100160.0;;;28.5;42.4
28456;BME280;15682;56.742;38.866;2022-08-04T09:41:54;100160.0;;;28.5;41.6
28456;BME280;15682;56.742;38.866;2022-08-04T09:43:53;100160.0;;;29.3;40.8
28456;BME280;15682;56.742;38.866;2022-08-04T09:45:58;100160.0;;;29.2;39.2
28456;BME280;15682;56.742;38.866;2022-08-04T09:47:53;100160.0;;;29.2;39.7
28456;BME280;15682;56.742;38.866;2022-08-04T09:49:54;100160.0;;;28.9;40.6
28456;BME280;15682;56.742;38.866;2022-08-04T09:52:00;100160.0;;;29.4;40.2
28456;BME280;15682;56.742;38.866;2022-08-04T09:53:56;100160.0;;;28.9;40.0
28456;BME280;15682;56.742;38.866;2022-08-04T09:55:59;100160.0;;;28.2;39.9
28456;BME280;15682;56.742;38.866;2022-08-04T09:57:56;100160.0;;;28.5;40.7
28456;BME280;15682;56.742;38.866;2022-08-04T09:59:57;100160.0;;;28.2;42.0
28456;BME280;15682;56.742;38.866;2022-08-04T10:01:56;100160.0;;;28.0;41.0
28456;BME280;15682;56.742;38.866;2022-08-04T10:03:57;100160.0;;;28.5;40.5
28456;BME280;15682;56.742;38.866;2022-08-04T10:06:07;100160.0;;;28.8;40.7
28456;BME280;15682;56.742;38.866;2022-08-04T10:08:03;100160.0;;;28.7;40.2
28456;BME280;15682;56.742;38.866;2022-08-04T10:10:06;100160.0;;;28.9;40.2
28456;BME280;15682;56.742;38.866;2022-08-04T10:12:07;100160.0;;;29.0;40.2
28456;BME280;15682;56.742;38.866;2022-08-04T10:14:00;100160.0;;;28.8;40.2
28456;BME280;15682;56.742;38.866;2022-08-04T10:16:10;100150.0;;;28.8;41.0
28456;BME280;15682;56.742;38.866;2022-08-04T10:18:13;100150.0;;;28.8;41.0
28456;BME280;15682;56.742;38.866;2022-08-04T10:20:06;100150.0;;;28.6;39.8
28456;BME280;15682;56.742;38.866;2022-08-04T10:22:08;100150.0;;;29.0;39.2
28456;BME280;15682;56.742;38.866;2022-08-04T10:24:13;100150.0;;;28.7;39.2
28456;BME280;15682;56.742;38.866;2022-08-04T10:26:08;100150.0;;;28.8;38.9
28456;BME280;15682;56.742;38.866;2022-08-04T10:28:05;100150.0;;;28.8;38.9
28456;BME280;15682;56.742;38.866;2022-08-04T10:30:04;100150.0;;;28.9;38.9
28456;BME280;15682;56.742;38.866;2022-08-04T10:32:06;100150.0;;;29.1;38.9
28456;BME280;15682;56.742;38.866;2022-08-04T10:34:11;100150.0;;;28.8;38.9
28456;BME280;15682;56.742;38.866;2022-08-04T10:36:07;100150.0;;;29.1;38.6
28456;BME280;15682;56.742;38.866;2022-08-04T10:38:10;100150.0;;;29.1;38.6
28456;BME280;15682;56.742;38.866;2022-08-04T10:40:09;100150.0;;;28.8;38.6
28456;BME280;15682;56.742;38.866;2022-08-04T10:42:15;100150.0;;;28.8;38.6
28456;BME280;15682;56.742;38.866;2022-08-04T10:44:17;100150.0;;;29.0;38.6
28456;BME280;15682;56.742;38.866;2022-08-04T10:46:08;100150.0;;;29.2;39.0
28456;BME280;15682;56.742;38.866;2022-08-04T10:48:14;100150.0;;;29.4;39.0
28456;BME280;15682;56.742;38.866;2022-08-04T10:50:09;100150.0;;;29.4;39.0
28456;BME280;15682;56.742;38.866;2022-08-04T10:52:15;100150.0;;;29.2;39.0
28456;BME280;15682;56.742;38.866;2022-08-04T10:54:12;100150.0;;;29.0;39.8